Rehfelde, Germany

11:20 PM CET on November 24, 2017 (GMT +0100)
Rehfelde | | Change Station

Elev 232 ft 52.54 °N, 13.90 °E | Updated 7 minutes ago

Mostly Cloudy
Mostly Cloudy
49.3 °F
Feels Like 49 °F
N
1.2
Wind Variable Wind from East
Gusts 2.5 mph

Today
High -- | Low -- °F
--% Chance of Precip.
Yesterday
High -- | Low -- °F
Precip. -- in
Pressure 29.92 in
Visibility 1.9 miles
Clouds Mostly Cloudy 2200 ft
Windchill 49 °F
Dew Point 48 °F
Humidity 95%
Rainfall 0.14 in
Snow Depth Not available.
7:41 AM 4:00 PM
Waxing Crescent, 33% visible
METAR EDDB 242150Z 20004KT 3000 R25L/1000N BCFG MIFG BR BKN022 06/06 Q1013 TEMPO 0500 FG
Pressure 29.92 in
Visibility 1.9 miles
Clouds Mostly Cloudy 2200 ft
Windchill 49 °F
Dew Point 48 °F
Humidity 95%
Rainfall 0.14 in
Snow Depth Not available.
7:41 AM 4:00 PM
Waxing Crescent, 33% visible
METAR EDDB 242150Z 20004KT 3000 R25L/1000N BCFG MIFG BR BKN022 06/06 Q1013 TEMPO 0500 FG

Get Severe Weather Alerts

Thanks for signing up!

Be on the lookout for a verification email in your inbox.

You'll start receiving the daily forecast at 6 AM.

×

10-Day Weather Forecast

×

Almanac

Astronomy

Nov. 24, 2017 Rise Set
Actual Time
Civil Twilight
Nautical Twilight
Astronomical Twilight
Moon
Length of Visible Light
Length of Day
Tomorrow will be .
, % of the Moon is Illuminated

Today's Extremes

Country Highs Country Lows

Community

WunderPhotos

Category 6

Welcome to Category 6. This is the collective home for Weather Underground's featured writeups by Dr. Jeff Masters (right), Bob Henson (left), Chris Burt, and other regular contributors.

Nearby

Air Quality

  Air Quality AQ Index Pollutant
Not available.

Snow Depth

Station Depth Elevation

Earthquake Activity

City Distance Mag. Time & Date
Minimum magnitude displayed is 2.5.

Coastal Water Temperatures

Place Temperature

Stations

Nearby Weather Stations

Station Location Temp. Windchill Dew Point Humidity Wind Precip. Elev Updated Type